createdAt,value
2017-10-16T00:01:09.179Z,15.98
2017-10-16T00:03:35.795Z,16.25
2017-10-16T00:06:02.469Z,13.15
2017-10-16T00:08:29.110Z,12.25
2017-10-16T00:10:55.842Z,15.52
2017-10-16T00:13:22.450Z,33.25
2017-10-16T00:15:49.078Z,12.85
2017-10-16T00:18:15.693Z,11.88
2017-10-16T00:20:42.302Z,18.75
2017-10-16T00:23:09.035Z,14.25
2017-10-16T00:25:35.643Z,11.90
2017-10-16T00:28:02.250Z,10.65
2017-10-16T00:30:28.875Z,11.55
2017-10-16T00:32:55.511Z,19.75
2017-10-16T00:35:22.122Z,13.98
2017-10-16T00:37:48.734Z,12.10
2017-10-16T00:40:15.374Z,10.32
2017-10-16T00:42:41.987Z,15.88
2017-10-16T00:45:08.602Z,19.75
2017-10-16T00:47:35.234Z,11.30
2017-10-16T00:50:01.856Z,10.82
2017-10-16T00:52:28.466Z,11.98
2017-10-16T00:54:55.194Z,15.20
2017-10-16T00:57:21.798Z,12.80
2017-10-16T00:59:48.411Z,12.60
2017-10-16T01:02:15.039Z,43.20
2017-10-16T01:04:41.833Z,14.60
2017-10-16T01:07:08.555Z,14.00
2017-10-16T01:09:35.178Z,13.55
2017-10-16T01:12:01.799Z,13.10
2017-10-16T01:14:28.414Z,12.50
2017-10-16T01:16:55.069Z,10.95
2017-10-16T01:19:21.692Z,15.57
2017-10-16T01:21:48.298Z,14.80
2017-10-16T01:24:14.956Z,11.15
2017-10-16T01:26:41.570Z,12.87
2017-10-16T01:29:08.179Z,10.77
2017-10-16T01:31:35.174Z,12.30
2017-10-16T01:34:02.018Z,11.27
2017-10-16T01:36:28.617Z,11.18
2017-10-16T01:38:55.291Z,12.23
2017-10-16T01:41:21.970Z,11.27
2017-10-16T01:43:48.608Z,11.75
2017-10-16T01:46:15.307Z,22.60
2017-10-16T01:48:41.976Z,13.07
2017-10-16T01:51:08.664Z,12.63
2017-10-16T01:53:35.650Z,11.15
2017-10-16T01:56:02.316Z,11.95
2017-10-16T01:58:28.979Z,11.63
2017-10-16T02:00:55.632Z,11.73
2017-10-16T02:03:22.294Z,10.75
2017-10-16T02:05:48.933Z,12.13
2017-10-16T02:08:15.577Z,12.75
2017-10-16T02:10:42.399Z,12.23
2017-10-16T02:13:09.026Z,10.88
2017-10-16T02:15:35.726Z,13.55
2017-10-16T02:18:02.413Z,11.85
2017-10-16T02:20:29.024Z,10.63
2017-10-16T02:22:55.707Z,11.60
2017-10-16T02:25:22.351Z,11.98
2017-10-16T02:27:48.962Z,15.52
2017-10-16T02:30:15.647Z,18.92
2017-10-16T02:32:42.283Z,17.95
2017-10-16T02:35:08.902Z,17.85
2017-10-16T02:37:35.520Z,16.73
2017-10-16T02:40:02.255Z,16.58
2017-10-16T02:42:28.874Z,19.08
2017-10-16T02:44:55.530Z,18.77
2017-10-16T02:47:22.167Z,19.85
2017-10-16T02:49:48.777Z,22.10
2017-10-16T02:52:15.398Z,23.23
2017-10-16T02:54:42.018Z,18.90
2017-10-16T02:57:08.651Z,19.17
2017-10-16T02:59:35.264Z,16.87
2017-10-16T03:02:01.910Z,18.98
2017-10-16T03:04:28.526Z,18.08
2017-10-16T03:06:55.143Z,15.80
2017-10-16T03:09:21.766Z,14.05
2017-10-16T03:11:48.381Z,14.10
2017-10-16T03:14:15.006Z,15.18
2017-10-16T03:16:41.751Z,11.55
2017-10-16T03:19:08.362Z,12.07
2017-10-16T03:21:34.986Z,13.00
2017-10-16T03:24:01.599Z,13.73
2017-10-16T03:26:28.231Z,16.23
2017-10-16T03:28:54.843Z,15.85
2017-10-16T03:31:21.473Z,17.40
2017-10-16T03:33:48.110Z,19.10
2017-10-16T03:36:14.723Z,19.73
2017-10-16T03:38:41.340Z,27.17
2017-10-16T03:41:07.966Z,25.30
2017-10-16T03:43:34.578Z,23.35
2017-10-16T03:46:01.190Z,18.48
2017-10-16T03:48:27.828Z,17.23
2017-10-16T03:50:54.444Z,17.30
2017-10-16T03:53:21.057Z,17.67
2017-10-16T03:55:47.688Z,19.08
2017-10-16T03:58:14.302Z,16.02
2017-10-16T04:00:40.930Z,16.50
2017-10-16T04:03:07.547Z,15.43
2017-10-16T04:05:34.177Z,18.98
2017-10-16T04:08:00.847Z,13.10
2017-10-16T04:10:27.468Z,25.48
2017-10-16T04:12:54.082Z,17.85
2017-10-16T04:15:20.713Z,18.25
2017-10-16T04:17:47.330Z,14.73
2017-10-16T04:20:13.942Z,13.02
2017-10-16T04:22:40.571Z,12.60
2017-10-16T04:25:07.182Z,16.65
2017-10-16T04:27:33.800Z,15.80
2017-10-16T04:30:00.434Z,13.20
2017-10-16T04:32:27.131Z,16.42
2017-10-16T04:34:53.742Z,14.05
2017-10-16T04:37:20.370Z,15.02
2017-10-16T04:39:47.016Z,13.13
2017-10-16T04:42:13.632Z,13.70
2017-10-16T04:44:40.263Z,14.87
2017-10-16T04:47:06.874Z,12.88
2017-10-16T04:49:33.491Z,15.27
2017-10-16T04:52:00.118Z,12.20
2017-10-16T04:54:26.731Z,14.60
2017-10-16T04:56:53.430Z,12.70
2017-10-16T04:59:20.062Z,12.65
2017-10-16T05:01:46.678Z,13.25
2017-10-16T05:04:13.308Z,15.07
2017-10-16T05:06:39.943Z,15.80
2017-10-16T05:09:06.558Z,14.60
2017-10-16T05:11:33.257Z,15.13
2017-10-16T05:13:59.886Z,17.75
2017-10-16T05:16:26.499Z,15.93
2017-10-16T05:18:53.106Z,24.50
2017-10-16T05:21:19.734Z,24.60
2017-10-16T05:23:46.347Z,22.48
2017-10-16T05:26:12.958Z,22.45
2017-10-16T05:28:39.594Z,20.00
2017-10-16T05:31:06.208Z,21.92
2017-10-16T05:33:32.911Z,21.92
2017-10-16T05:35:59.596Z,19.00
2017-10-16T05:38:26.210Z,20.75
2017-10-16T05:40:52.838Z,16.17
2017-10-16T05:43:19.450Z,17.33
2017-10-16T05:45:46.145Z,23.38
2017-10-16T05:48:12.800Z,19.37
2017-10-16T05:50:39.414Z,22.65
2017-10-16T05:53:06.026Z,23.85
2017-10-16T05:55:32.655Z,23.92
2017-10-16T05:57:59.266Z,22.33
2017-10-16T06:00:25.935Z,23.80
2017-10-16T06:02:52.570Z,20.83
2017-10-16T06:05:19.193Z,19.37
2017-10-16T06:07:45.862Z,18.23
2017-10-16T06:10:12.491Z,18.75
2017-10-16T06:12:39.099Z,17.35
2017-10-16T06:15:05.711Z,18.33
2017-10-16T06:17:32.339Z,15.98
2017-10-16T06:19:58.974Z,16.65
2017-10-16T06:22:25.590Z,19.17
2017-10-16T06:24:52.254Z,16.50
2017-10-16T06:27:18.867Z,15.27
2017-10-16T06:29:45.474Z,18.12
2017-10-16T06:32:12.151Z,20.42
2017-10-16T06:34:38.763Z,17.25
2017-10-16T06:37:05.378Z,23.52
2017-10-16T06:39:32.002Z,18.08
2017-10-16T06:41:58.614Z,16.70
2017-10-16T06:44:25.228Z,16.67
2017-10-16T06:46:51.858Z,15.63
2017-10-16T06:49:18.474Z,16.83
2017-10-16T06:51:45.092Z,20.42
2017-10-16T06:54:11.722Z,18.58
2017-10-16T06:56:38.343Z,19.00
2017-10-16T06:59:04.963Z,17.58
2017-10-16T07:01:31.594Z,22.62
2017-10-16T07:03:58.210Z,17.17
2017-10-16T07:06:24.838Z,19.00
2017-10-16T07:08:51.450Z,20.15
2017-10-16T07:11:18.065Z,19.30
2017-10-16T07:13:44.695Z,20.40
2017-10-16T07:16:11.316Z,20.33
2017-10-16T07:18:37.936Z,18.17
2017-10-16T07:21:04.618Z,25.25
2017-10-16T07:23:31.226Z,17.08
2017-10-16T07:25:57.865Z,18.95
2017-10-16T07:28:24.471Z,19.05
2017-10-16T07:30:51.083Z,18.95
2017-10-16T07:33:17.710Z,26.50
2017-10-16T07:35:44.322Z,20.95
2017-10-16T07:38:10.941Z,22.02
2017-10-16T07:40:37.575Z,30.17
2017-10-16T07:43:04.188Z,17.33
2017-10-16T07:45:30.808Z,19.92
2017-10-16T07:47:57.438Z,23.92
2017-10-16T07:50:24.059Z,21.35
2017-10-16T07:52:50.722Z,18.25
2017-10-16T07:55:17.334Z,23.15
2017-10-16T07:57:43.942Z,24.92
2017-10-16T08:00:10.567Z,23.05
2017-10-16T08:02:37.182Z,19.45
2017-10-16T08:05:03.794Z,18.37
2017-10-16T08:07:30.423Z,18.52
2017-10-16T08:09:57.030Z,26.75
2017-10-16T08:12:23.650Z,18.42
2017-10-16T08:14:50.286Z,17.05
2017-10-16T08:17:16.896Z,19.35
2017-10-16T08:19:43.507Z,19.55
2017-10-16T08:22:10.135Z,17.00
2017-10-16T08:24:36.760Z,16.87
2017-10-16T08:27:03.373Z,18.87
2017-10-16T08:29:30.002Z,16.55
2017-10-16T08:31:56.634Z,15.82
2017-10-16T08:34:23.250Z,19.37
2017-10-16T08:36:49.879Z,20.95
2017-10-16T08:39:16.595Z,17.27
2017-10-16T08:41:43.206Z,16.35
2017-10-16T08:44:09.830Z,16.15
2017-10-16T08:46:36.470Z,16.65
2017-10-16T08:49:03.111Z,18.73
2017-10-16T08:51:29.743Z,16.77
2017-10-16T08:53:56.356Z,15.88
2017-10-16T08:56:22.967Z,14.63
2017-10-16T08:58:49.662Z,15.80
2017-10-16T09:01:16.274Z,18.70
2017-10-16T09:03:42.948Z,20.42
2017-10-16T09:06:09.592Z,14.15
2017-10-16T09:08:36.190Z,15.65
2017-10-16T09:11:02.822Z,16.87
2017-10-16T09:13:29.443Z,14.93
2017-10-16T09:15:56.050Z,13.85
2017-10-16T09:18:22.717Z,14.52
2017-10-16T09:20:49.326Z,14.13
2017-10-16T09:23:15.940Z,15.02
2017-10-16T09:25:42.578Z,15.93
2017-10-16T09:28:09.191Z,18.85
2017-10-16T09:30:35.870Z,13.75
2017-10-16T09:33:02.653Z,12.50
2017-10-16T09:35:29.351Z,13.10
2017-10-16T09:37:55.988Z,16.83
2017-10-16T09:40:22.627Z,12.27
2017-10-16T09:42:49.243Z,13.07
2017-10-16T09:45:15.859Z,14.10
2017-10-16T09:47:42.550Z,13.23
2017-10-16T09:50:09.159Z,13.73
2017-10-16T09:52:35.787Z,12.80
2017-10-16T09:55:02.467Z,11.70
2017-10-16T09:57:29.083Z,12.98
2017-10-16T09:59:55.742Z,12.93
2017-10-16T10:02:22.349Z,12.25
2017-10-16T10:04:49.064Z,13.25
2017-10-16T10:07:15.691Z,13.18
2017-10-16T10:09:42.302Z,14.35
2017-10-16T10:12:08.931Z,14.13
2017-10-16T10:14:35.559Z,11.48
2017-10-16T10:17:02.209Z,16.17
2017-10-16T10:19:28.823Z,15.85
2017-10-16T10:21:55.449Z,16.20
2017-10-16T10:24:22.062Z,10.27
2017-10-16T10:26:48.706Z,12.60
2017-10-16T10:29:15.411Z,12.32
2017-10-16T10:31:42.025Z,11.25
2017-10-16T10:34:08.657Z,13.80
2017-10-16T10:36:35.383Z,12.30
2017-10-16T10:39:01.994Z,13.15
2017-10-16T10:41:28.611Z,16.02
2017-10-16T10:43:55.249Z,11.07
2017-10-16T10:46:21.948Z,17.95
2017-10-16T10:48:48.565Z,11.93
2017-10-16T10:51:15.187Z,13.38
2017-10-16T10:53:41.803Z,12.63
2017-10-16T10:56:08.416Z,10.85
2017-10-16T10:58:35.083Z,15.27
2017-10-16T11:01:01.695Z,16.17
2017-10-16T11:03:28.323Z,10.75
2017-10-16T11:05:54.951Z,8.93
2017-10-16T11:08:21.556Z,16.45
2017-10-16T11:10:48.270Z,14.32
2017-10-16T11:13:14.911Z,13.07
2017-10-16T11:15:41.523Z,11.05
2017-10-16T11:18:08.150Z,10.85
2017-10-16T11:20:34.758Z,14.68
2017-10-16T11:23:01.362Z,14.02
2017-10-16T11:25:27.986Z,10.10
2017-10-16T11:27:54.591Z,9.98
2017-10-16T11:30:21.203Z,10.25
2017-10-16T11:32:47.922Z,9.55
2017-10-16T11:35:14.558Z,8.80
2017-10-16T11:37:41.174Z,10.70
2017-10-16T11:40:07.804Z,13.90
2017-10-16T11:42:34.479Z,10.15
2017-10-16T11:45:01.092Z,14.52
2017-10-16T11:47:27.715Z,8.85
2017-10-16T11:49:54.394Z,12.85
2017-10-16T11:52:21.039Z,11.10
2017-10-16T11:54:47.654Z,9.85
2017-10-16T11:57:14.314Z,8.73
2017-10-16T11:59:41.059Z,12.15
2017-10-16T12:02:07.696Z,9.63
2017-10-16T12:04:34.335Z,8.50
2017-10-16T12:07:00.975Z,10.55
2017-10-16T12:09:27.586Z,15.65
2017-10-16T12:11:54.194Z,8.85
2017-10-16T12:14:20.824Z,9.23
2017-10-16T12:16:47.529Z,8.48
2017-10-16T12:19:14.133Z,7.95
2017-10-16T12:21:40.808Z,13.15
2017-10-16T12:24:07.432Z,14.82
2017-10-16T12:26:34.056Z,10.60
2017-10-16T12:29:00.678Z,9.20
2017-10-16T12:31:27.301Z,10.05
2017-10-16T12:33:53.908Z,7.78
2017-10-16T12:36:20.539Z,8.50
2017-10-16T12:38:47.159Z,10.15
2017-10-16T12:41:13.770Z,8.88
2017-10-16T12:43:40.403Z,10.33
2017-10-16T12:46:07.006Z,9.80
2017-10-16T12:48:33.746Z,12.17
2017-10-16T12:51:00.374Z,7.30
2017-10-16T12:53:26.980Z,14.87
2017-10-16T12:55:53.762Z,10.20
2017-10-16T12:58:20.404Z,9.90
2017-10-16T13:00:47.007Z,12.83
2017-10-16T13:03:13.629Z,11.27
2017-10-16T13:05:40.261Z,8.20
2017-10-16T13:08:06.864Z,7.87
2017-10-16T13:10:33.467Z,7.83
2017-10-16T13:13:00.108Z,10.93
2017-10-16T13:15:26.709Z,9.67
2017-10-16T13:17:53.315Z,9.60
2017-10-16T13:20:19.942Z,18.50
2017-10-16T13:22:46.825Z,10.90
2017-10-16T13:25:13.518Z,9.07
2017-10-16T13:27:40.267Z,9.87
2017-10-16T13:30:06.894Z,6.93
2017-10-16T13:32:33.590Z,8.07
2017-10-16T13:35:00.194Z,9.53
2017-10-16T13:37:26.798Z,7.47
2017-10-16T13:39:54.374Z,15.90
2017-10-16T13:42:21.018Z,6.27
2017-10-16T13:44:47.653Z,11.70
2017-10-16T13:47:14.282Z,10.97
2017-10-16T13:49:40.882Z,8.00
2017-10-16T13:52:07.493Z,7.73
2017-10-16T13:54:34.112Z,9.10
2017-10-16T13:57:00.963Z,10.97
2017-10-16T13:59:27.699Z,9.80
2017-10-16T14:01:54.384Z,11.47
2017-10-16T14:04:26.931Z,10.57
2017-10-16T14:06:53.552Z,12.03
2017-10-16T14:09:20.178Z,16.20
2017-10-16T14:11:46.789Z,10.00
2017-10-16T14:14:13.474Z,16.17
2017-10-16T14:16:40.087Z,13.47
2017-10-16T14:19:06.775Z,17.67
2017-10-16T14:21:33.395Z,12.67
2017-10-16T14:23:59.994Z,9.40
2017-10-16T14:26:26.661Z,9.00
2017-10-16T14:28:53.292Z,8.10
2017-10-16T14:31:19.944Z,7.63
2017-10-16T14:33:46.550Z,10.23
2017-10-16T14:36:13.219Z,8.00
2017-10-16T14:38:39.855Z,10.80
2017-10-16T14:41:06.458Z,7.70
2017-10-16T14:43:33.082Z,7.70
2017-10-16T14:45:59.799Z,8.80
2017-10-16T14:48:26.398Z,9.73
2017-10-16T14:50:53.018Z,9.20
2017-10-16T14:53:19.631Z,11.10
2017-10-16T14:55:46.235Z,7.37
2017-10-16T14:58:12.858Z,13.40
2017-10-16T15:00:42.150Z,10.90
2017-10-16T15:03:08.754Z,7.63
2017-10-16T15:05:35.400Z,8.00
2017-10-16T15:08:02.008Z,9.10
2017-10-16T15:10:28.607Z,9.40
2017-10-16T15:12:55.229Z,14.90
2017-10-16T15:15:21.903Z,9.43
2017-10-16T15:17:48.506Z,10.53
2017-10-16T15:20:15.183Z,11.40
2017-10-16T15:22:41.792Z,8.83
2017-10-16T15:25:08.458Z,8.60
2017-10-16T15:27:35.102Z,12.13
2017-10-16T15:30:01.855Z,9.00
2017-10-16T15:32:28.590Z,7.90
2017-10-16T15:34:55.206Z,8.83
2017-10-16T15:37:21.806Z,8.60
2017-10-16T15:39:48.443Z,9.32
2017-10-16T15:42:15.182Z,8.02
2017-10-16T15:44:41.798Z,9.85
2017-10-16T15:47:08.428Z,10.70
2017-10-16T15:49:35.038Z,13.15
2017-10-16T15:52:01.651Z,10.98
2017-10-16T15:54:28.330Z,9.27
2017-10-16T15:56:54.975Z,10.90
2017-10-16T15:59:21.606Z,14.57
2017-10-16T16:01:48.235Z,15.88
2017-10-16T16:04:14.855Z,14.95
2017-10-16T16:06:41.529Z,13.77
2017-10-16T16:09:08.163Z,12.90
2017-10-16T16:11:34.894Z,23.10
2017-10-16T16:14:01.530Z,18.05
2017-10-16T16:16:28.186Z,12.20
2017-10-16T16:18:54.794Z,13.27
2017-10-16T16:21:21.499Z,13.52
2017-10-16T16:23:48.102Z,13.68
2017-10-16T16:26:14.730Z,13.73
2017-10-16T16:28:41.364Z,16.67
2017-10-16T16:31:07.974Z,14.90
2017-10-16T16:33:34.603Z,34.97
2017-10-16T16:36:01.223Z,20.30
2017-10-16T16:38:27.941Z,15.25
2017-10-16T16:40:54.579Z,18.83
2017-10-16T16:43:21.199Z,16.15
2017-10-16T16:45:47.810Z,13.30
2017-10-16T16:48:14.493Z,11.32
2017-10-16T16:50:41.134Z,18.77
2017-10-16T16:53:07.817Z,13.02
2017-10-16T16:55:35.318Z,18.52
2017-10-16T16:58:01.937Z,15.77
2017-10-16T17:00:28.551Z,20.90
2017-10-16T17:02:55.170Z,20.92
2017-10-16T17:05:21.791Z,19.20
2017-10-16T17:07:48.398Z,20.25
2017-10-16T17:10:15.061Z,18.85
2017-10-16T17:12:41.676Z,19.12
2017-10-16T17:15:08.314Z,15.85
2017-10-16T17:17:34.947Z,16.73
2017-10-16T17:20:01.573Z,19.77
2017-10-16T17:22:28.183Z,19.17
2017-10-16T17:24:54.907Z,16.30
2017-10-16T17:27:21.514Z,16.92
2017-10-16T17:29:48.126Z,18.75
2017-10-16T17:32:14.819Z,21.95
2017-10-16T17:34:41.435Z,21.70
2017-10-16T17:37:08.046Z,18.50
2017-10-16T17:39:34.741Z,19.65
2017-10-16T17:42:01.375Z,17.58
2017-10-16T17:44:27.984Z,19.92
2017-10-16T17:46:54.649Z,27.85
2017-10-16T17:49:21.282Z,21.40
2017-10-16T17:51:47.953Z,19.10
2017-10-16T17:54:14.622Z,21.60
2017-10-16T17:56:41.251Z,19.85
2017-10-16T17:59:07.863Z,22.13
2017-10-16T18:01:34.474Z,22.95
2017-10-16T18:04:01.134Z,24.33
2017-10-16T18:06:27.746Z,32.65
2017-10-16T18:08:54.363Z,26.50
2017-10-16T18:11:20.986Z,23.80
2017-10-16T18:13:47.602Z,18.08
2017-10-16T18:16:14.229Z,16.75
2017-10-16T18:18:40.858Z,17.55
2017-10-16T18:21:07.498Z,20.30
2017-10-16T18:23:34.145Z,13.52
2017-10-16T18:26:00.766Z,16.73
2017-10-16T18:28:27.374Z,15.30
2017-10-16T18:30:54.001Z,17.40
2017-10-16T18:33:20.615Z,21.35
2017-10-16T18:35:47.244Z,17.42
2017-10-16T18:38:13.863Z,20.37
2017-10-16T18:40:40.475Z,18.62
2017-10-16T18:43:07.147Z,14.43
2017-10-16T18:45:33.754Z,15.10
2017-10-16T18:48:00.373Z,27.15
2017-10-16T18:50:27.001Z,19.05
2017-10-16T18:52:53.619Z,22.17
2017-10-16T18:55:20.238Z,19.23
2017-10-16T18:57:46.871Z,15.65
2017-10-16T19:00:13.483Z,15.95
2017-10-16T19:02:40.090Z,18.55
2017-10-16T19:05:06.719Z,22.73
2017-10-16T19:07:33.330Z,17.87
2017-10-16T19:09:59.957Z,19.27
2017-10-16T19:12:26.574Z,19.00
2017-10-16T19:14:53.262Z,17.52
2017-10-16T19:17:19.894Z,23.77
2017-10-16T19:19:46.505Z,20.02
2017-10-16T19:22:13.114Z,19.85
2017-10-16T19:24:39.742Z,17.20
2017-10-16T19:27:06.442Z,19.70
2017-10-16T19:29:33.081Z,17.10
2017-10-16T19:31:59.706Z,16.58
2017-10-16T19:34:26.318Z,17.73
2017-10-16T19:36:53.004Z,19.05
2017-10-16T19:39:19.619Z,25.12
2017-10-16T19:41:46.254Z,22.55
2017-10-16T19:44:12.914Z,22.48
2017-10-16T19:46:39.528Z,19.50
2017-10-16T19:49:06.143Z,28.87
2017-10-16T19:51:32.839Z,18.85
2017-10-16T19:53:59.459Z,18.05
2017-10-16T19:56:26.067Z,32.15
2017-10-16T19:58:52.703Z,17.27
2017-10-16T20:01:19.315Z,16.27
2017-10-16T20:03:45.926Z,17.85
2017-10-16T20:06:12.559Z,21.37
2017-10-16T20:08:39.167Z,23.38
2017-10-16T20:11:05.851Z,24.30
2017-10-16T20:13:32.688Z,19.12
2017-10-16T20:15:59.332Z,20.25
2017-10-16T20:18:25.946Z,19.10
2017-10-16T20:20:52.578Z,26.98
2017-10-16T20:23:19.190Z,16.70
2017-10-16T20:25:45.882Z,23.73
2017-10-16T20:28:12.661Z,21.27
2017-10-16T20:30:39.287Z,21.00
2017-10-16T20:33:05.934Z,22.20
2017-10-16T20:35:32.563Z,19.23
2017-10-16T20:37:59.179Z,17.98
2017-10-16T20:40:25.814Z,16.42
2017-10-16T20:42:52.560Z,18.60
2017-10-16T20:45:19.197Z,17.77
2017-10-16T20:47:45.811Z,21.15
2017-10-16T20:50:12.439Z,18.75
2017-10-16T20:52:39.118Z,17.95
2017-10-16T20:55:05.751Z,23.60
2017-10-16T20:57:32.399Z,20.25
2017-10-16T20:59:59.002Z,21.05
2017-10-16T21:02:25.643Z,20.30
2017-10-16T21:04:52.255Z,22.67
2017-10-16T21:07:18.862Z,20.20
2017-10-16T21:09:45.492Z,18.30
2017-10-16T21:12:12.131Z,22.10
2017-10-16T21:14:38.759Z,23.05
2017-10-16T21:17:05.371Z,20.33
2017-10-16T21:19:31.982Z,22.50
2017-10-16T21:21:58.686Z,20.37
2017-10-16T21:24:25.301Z,24.52
2017-10-16T21:26:51.919Z,20.77
2017-10-16T21:29:18.544Z,18.20
2017-10-16T21:31:45.238Z,19.00
2017-10-16T21:34:11.990Z,18.98
2017-10-16T21:36:38.623Z,18.23
2017-10-16T21:39:05.239Z,18.15
2017-10-16T21:41:31.855Z,18.73
2017-10-16T21:43:58.482Z,26.77
2017-10-16T21:46:25.096Z,26.73
2017-10-16T21:48:51.713Z,19.80
2017-10-16T21:51:18.343Z,18.90
2017-10-16T21:53:44.958Z,19.80
2017-10-16T21:56:11.566Z,19.65
2017-10-16T21:58:38.266Z,17.60
2017-10-16T22:01:04.875Z,20.65
2017-10-16T22:03:31.486Z,18.02
2017-10-16T22:05:58.113Z,20.10
2017-10-16T22:08:24.737Z,26.80
2017-10-16T22:10:51.387Z,26.77
2017-10-16T22:13:18.015Z,24.75
2017-10-16T22:15:44.626Z,22.45
2017-10-16T22:18:11.279Z,20.00
2017-10-16T22:20:37.910Z,22.20
2017-10-16T22:23:04.530Z,24.12
2017-10-16T22:25:31.146Z,20.05
2017-10-16T22:27:57.768Z,18.42
2017-10-16T22:30:24.378Z,18.00
2017-10-16T22:32:51.015Z,17.87
2017-10-16T22:35:17.650Z,18.25
2017-10-16T22:37:44.286Z,20.17
2017-10-16T22:40:10.915Z,27.42
2017-10-16T22:42:37.527Z,22.40
2017-10-16T22:45:04.146Z,25.92
2017-10-16T22:47:30.781Z,19.67
2017-10-16T22:49:57.489Z,16.23
2017-10-16T22:52:24.103Z,21.95
2017-10-16T22:54:50.729Z,17.05
2017-10-16T22:57:17.414Z,21.00
2017-10-16T22:59:44.026Z,17.83
2017-10-16T23:02:10.652Z,19.37
2017-10-16T23:04:37.262Z,18.42
2017-10-16T23:07:03.873Z,21.27
2017-10-16T23:09:30.502Z,19.60
2017-10-16T23:11:57.139Z,17.67
2017-10-16T23:14:23.754Z,17.80
2017-10-16T23:16:50.410Z,22.75
2017-10-16T23:19:17.023Z,23.90
2017-10-16T23:21:43.646Z,17.90
2017-10-16T23:24:10.263Z,18.50
2017-10-16T23:26:36.879Z,18.08
2017-10-16T23:29:03.502Z,19.55
2017-10-16T23:31:30.114Z,18.70
2017-10-16T23:33:56.783Z,20.05
2017-10-16T23:36:23.559Z,20.77
2017-10-16T23:38:50.262Z,23.35
2017-10-16T23:41:16.870Z,22.17
2017-10-16T23:43:43.495Z,18.83
2017-10-16T23:46:10.118Z,20.12
2017-10-16T23:48:36.822Z,22.50
2017-10-16T23:51:03.442Z,19.33
2017-10-16T23:53:30.054Z,20.20
2017-10-16T23:55:56.781Z,23.75
2017-10-16T23:58:23.401Z,18.15
